Time;durP1;ratioP1;P1;durP2;ratioP2;P2;SDS_P1;SDS_P2;PMS_P1;PMS_P2;Temp;Humidity;BMP_temperature;BMP_pressure;BME280_temperature;BME280_humidity;BME280_pressure;Samples;Min_cycle;Max_cycle;Signal;HPM_P1;HPM_P2
2023/03/22 00:01:24;;;;;;;12.35;8.75;;;9.80;99.90;;;;;;5096829;28;20044;-76
2023/03/22 00:03:51;;;;;;;14.15;8.63;;;10.20;99.90;;;;;;5096475;28;20051;-76
2023/03/22 00:06:18;;;;;;;14.98;8.73;;;9.80;99.90;;;;;;5096739;28;20044;-77
2023/03/22 00:08:47;;;;;;;14.43;8.40;;;9.80;99.90;;;;;;5096559;28;20133;-76
2023/03/22 00:11:12;;;;;;;14.07;7.97;;;9.80;99.90;;;;;;5096607;28;20079;-76
2023/03/22 00:13:38;;;;;;;13.05;7.45;;;9.80;99.90;;;;;;5096771;28;20079;-77
2023/03/22 00:16:04;;;;;;;13.20;7.22;;;10.30;99.90;;;;;;5096596;28;20044;-77
2023/03/22 00:18:30;;;;;;;14.73;7.30;;;9.80;99.90;;;;;;5096491;28;20051;-76
2023/03/22 00:20:57;;;;;;;15.55;7.57;;;9.80;99.90;;;;;;5096718;28;20036;-76
2023/03/22 00:23:24;;;;;;;14.65;8.43;;;9.80;99.90;;;;;;5096549;28;20109;-76
2023/03/22 00:25:50;;;;;;;12.80;7.68;;;9.90;99.90;;;;;;5096411;28;20487;-76
2023/03/22 00:28:16;;;;;;;13.07;6.47;;;9.80;99.90;;;;;;5096397;28;20059;-76
2023/03/22 00:30:49;;;;;;;13.50;7.65;;;9.80;99.90;;;;;;5096201;28;20032;-76
2023/03/22 00:33:15;;;;;;;12.48;7.20;;;9.80;99.90;;;;;;5096205;28;20040;-76
2023/03/22 00:35:47;;;;;;;14.23;7.53;;;9.80;99.90;;;;;;5094658;28;20097;-76
2023/03/22 00:38:13;;;;;;;17.15;7.35;;;9.80;99.90;;;;;;5096133;28;20048;-77
2023/03/22 00:40:39;;;;;;;14.10;8.43;;;10.40;99.90;;;;;;5096121;28;20421;-76
2023/03/22 00:43:05;;;;;;;12.07;7.43;;;9.70;99.90;;;;;;5095975;28;20048;-76
2023/03/22 00:45:31;;;;;;;12.98;7.70;;;9.70;99.90;;;;;;5095668;28;20048;-76
2023/03/22 00:47:56;;;;;;;13.90;7.05;;;9.70;99.90;;;;;;5095829;28;20139;-76
2023/03/22 00:50:22;;;;;;;18.02;8.00;;;9.60;99.90;;;;;;5095900;28;20054;-76
2023/03/22 00:52:47;;;;;;;13.48;7.03;;;9.60;99.90;;;;;;5095786;28;20388;-77
2023/03/22 00:55:13;;;;;;;12.55;6.43;;;9.50;99.90;;;;;;5095824;28;20044;-77
2023/03/22 00:57:39;;;;;;;13.93;6.00;;;9.50;99.90;;;;;;5095897;28;20052;-77
2023/03/22 01:00:12;;;;;;;10.45;6.35;;;9.50;99.90;;;;;;5095208;28;20441;-77
2023/03/22 01:02:39;;;;;;;10.82;6.30;;;9.50;99.90;;;;;;5096108;28;20043;-77
2023/03/22 01:05:05;;;;;;;10.50;6.10;;;9.50;99.90;;;;;;5095548;28;20040;-76
2023/03/22 01:07:31;;;;;;;10.77;6.38;;;9.50;99.90;;;;;;5095479;28;20519;-76
2023/03/22 01:09:57;;;;;;;13.43;6.40;;;9.50;99.90;;;;;;5095465;28;20086;-76
2023/03/22 01:12:24;;;;;;;11.48;6.38;;;9.50;99.90;;;;;;5095530;28;20079;-76
2023/03/22 01:14:49;;;;;;;13.75;5.88;;;9.50;99.90;;;;;;5095308;28;20044;-76
2023/03/22 01:17:15;;;;;;;13.18;5.93;;;9.50;99.90;;;;;;5095381;28;20040;-76
2023/03/22 01:19:41;;;;;;;13.88;6.75;;;9.50;99.90;;;;;;5094656;28;20047;-76
2023/03/22 01:22:07;;;;;;;12.38;6.30;;;9.50;99.90;;;;;;5095374;28;20079;-76
2023/03/22 01:24:33;;;;;;;12.93;5.85;;;9.50;99.90;;;;;;5095123;28;20084;-76
2023/03/22 01:26:59;;;;;;;11.32;5.47;;;9.50;99.90;;;;;;5095196;28;20036;-76
2023/03/22 01:29:25;;;;;;;12.35;4.63;;;9.50;99.90;;;;;;5095083;28;20104;-77
2023/03/22 01:31:51;;;;;;;13.05;4.95;;;9.50;99.90;;;;;;5095162;28;20055;-77
2023/03/22 01:34:17;;;;;;;12.98;4.53;;;9.50;99.90;;;;;;5095095;28;20086;-78
2023/03/22 01:36:42;;;;;;;13.53;5.07;;;9.50;99.90;;;;;;5095028;28;20044;-77
2023/03/22 01:39:08;;;;;;;11.05;4.47;;;9.50;99.90;;;;;;5094823;28;20040;-77
2023/03/22 01:41:36;;;;;;;12.48;5.00;;;9.60;99.90;;;;;;5094878;28;20357;-77
2023/03/22 01:44:14;;;;;;;11.55;4.80;;;9.50;99.90;;;;;;5094769;28;20044;-77
2023/03/22 01:46:40;;;;;;;8.23;4.47;;;9.50;99.90;;;;;;5094886;28;20079;-77
2023/03/22 01:49:11;;;;;;;14.27;4.63;;;9.50;99.90;;;;;;5094532;28;20404;-78
2023/03/22 01:51:38;;;;;;;9.73;4.28;;;9.40;99.90;;;;;;5094548;28;20054;-78
2023/03/22 01:54:11;;;;;;;6.00;4.13;;;9.50;99.90;;;;;;5094634;28;20044;-78
2023/03/22 01:56:39;;;;;;;13.32;4.70;;;9.90;99.90;;;;;;5094831;28;20048;-77
2023/03/22 01:59:07;;;;;;;9.93;4.47;;;9.50;99.90;;;;;;5094618;28;20043;-77
2023/03/22 02:01:34;;;;;;;9.18;4.53;;;9.50;99.90;;;;;;5094514;28;20044;-78
2023/03/22 02:04:05;;;;;;;10.77;4.65;;;9.40;99.90;;;;;;5094507;28;20135;-77
2023/03/22 02:06:36;;;;;;;9.38;4.05;;;9.50;99.90;;;;;;5094210;28;20476;-77
2023/03/22 02:09:04;;;;;;;8.43;4.38;;;9.40;99.90;;;;;;5094320;28;20036;-77
2023/03/22 02:11:34;;;;;;;9.57;4.32;;;9.40;99.90;;;;;;5093327;28;20042;-77
2023/03/22 02:14:18;;;;;;;11.32;4.50;;;9.40;99.90;;;;;;5093663;28;20085;-77
2023/03/22 02:17:16;;;;;;;9.40;4.68;;;9.40;99.90;;;;;;5094297;28;20079;-78
2023/03/22 02:20:08;;;;;;;13.18;5.03;;;9.40;99.90;;;;;;5094214;28;20048;-77
2023/03/22 02:22:43;;;;;;;8.68;4.57;;;9.40;99.90;;;;;;5094091;28;20097;-77
2023/03/22 02:25:49;;;;;;;10.73;4.55;;;9.50;99.90;;;;;;5094066;28;20146;-77
2023/03/22 02:28:26;;;;;;;11.13;4.90;;;9.40;99.90;;;;;;5094634;28;20055;-77
2023/03/22 02:31:18;;;;;;;;;;;9.40;99.90;;;;;;5094375;28;20040;-77
2023/03/22 02:33:50;;;;;;;8.50;4.60;;;9.40;99.90;;;;;;5089699;28;20402;-77
2023/03/22 02:36:31;;;;;;;9.25;4.55;;;9.40;99.90;;;;;;5093840;28;20051;-76
2023/03/22 02:39:26;;;;;;;9.45;4.47;;;9.30;99.90;;;;;;5093600;28;20476;-76
2023/03/22 02:42:06;;;;;;;12.18;4.15;;;9.30;99.90;;;;;;5093893;28;20059;-76
2023/03/22 02:45:15;;;;;;;9.02;4.22;;;9.30;99.90;;;;;;5093957;28;20399;-76
2023/03/22 02:48:33;;;;;;;14.18;4.55;;;9.30;99.90;;;;;;5091040;28;20055;-76
2023/03/22 02:51:09;;;;;;;10.68;4.22;;;9.30;99.90;;;;;;5067570;28;20082;-77
2023/03/22 02:53:56;;;;;;;8.70;3.83;;;9.30;99.90;;;;;;5093638;28;20040;-75
2023/03/22 02:56:29;;;;;;;12.00;3.90;;;9.30;99.90;;;;;;5093758;28;20043;-76
2023/03/22 02:58:58;;;;;;;6.22;3.22;;;9.30;99.90;;;;;;5092420;28;20059;-77
2023/03/22 03:01:41;;;;;;;9.63;3.92;;;9.50;99.90;;;;;;5093453;28;20043;-76
2023/03/22 03:04:13;;;;;;;10.18;3.90;;;9.40;99.90;;;;;;5093664;28;20126;-76
2023/03/22 03:06:44;;;;;;;11.60;4.32;;;9.30;99.90;;;;;;5093439;28;20059;-77
2023/03/22 03:09:12;;;;;;;8.20;3.60;;;9.30;99.90;;;;;;5093430;28;20502;-76
2023/03/22 03:11:38;;;;;;;11.30;3.60;;;9.40;99.90;;;;;;5093270;28;20044;-75
2023/03/22 03:14:04;;;;;;;6.53;2.92;;;9.40;99.90;;;;;;5093480;28;20173;-76
2023/03/22 03:16:33;;;;;;;7.30;3.40;;;9.30;99.90;;;;;;5093900;28;20101;-76
2023/03/22 03:19:21;;;;;;;6.40;3.30;;;9.30;99.90;;;;;;5093289;28;20044;-76
2023/03/22 03:21:51;;;;;;;;;;;9.30;99.90;;;;;;5094918;28;20492;-76
2023/03/22 03:24:37;;;;;;;7.55;3.13;;;9.30;99.90;;;;;;5097434;28;19920;-76
2023/03/22 03:27:16;;;;;;;8.38;3.05;;;9.40;99.90;;;;;;5097935;28;20044;-77
2023/03/22 03:29:44;;;;;;;7.43;3.10;;;9.30;99.90;;;;;;5097400;28;20050;-76
2023/03/22 03:32:20;;;;;;;7.22;2.90;;;9.30;99.90;;;;;;5097404;28;20050;-76
2023/03/22 03:35:05;;;;;;;8.00;3.25;;;9.30;99.90;;;;;;5097359;28;20044;-77
2023/03/22 03:37:38;;;;;;;9.30;3.20;;;9.30;99.90;;;;;;5097264;28;20052;-77
2023/03/22 03:40:13;;;;;;;7.72;3.03;;;9.30;99.90;;;;;;5097289;28;20036;-76
2023/03/22 03:42:45;;;;;;;11.95;4.40;;;9.30;99.90;;;;;;5097045;28;20487;-77
2023/03/22 03:45:12;;;;;;;7.78;2.83;;;10.00;99.90;;;;;;5097231;28;20062;-77
2023/03/22 03:47:38;;;;;;;7.47;3.30;;;9.20;99.90;;;;;;5095705;28;20056;-77
2023/03/22 03:50:05;;;;;;;6.90;2.97;;;9.50;99.90;;;;;;5097007;28;20086;-77
2023/03/22 03:52:30;;;;;;;11.20;3.17;;;9.30;99.90;;;;;;5096831;28;20078;-77
2023/03/22 03:54:56;;;;;;;6.47;2.75;;;9.30;99.90;;;;;;5095891;28;20036;-76
2023/03/22 03:57:22;;;;;;;9.10;3.15;;;9.30;99.90;;;;;;5097081;28;20472;-75
2023/03/22 03:59:48;;;;;;;5.73;3.30;;;9.30;99.90;;;;;;5096884;28;20086;-75
2023/03/22 04:02:13;;;;;;;7.72;3.15;;;10.10;99.90;;;;;;5096826;28;20079;-77
2023/03/22 04:04:39;;;;;;;7.78;4.38;;;9.40;99.90;;;;;;5097093;28;20036;-76
2023/03/22 04:07:06;;;;;;;9.25;3.97;;;10.00;99.90;;;;;;5096794;28;20086;-76
2023/03/22 04:09:34;;;;;;;7.93;3.92;;;9.90;99.90;;;;;;5096571;28;20459;-76
2023/03/22 04:12:00;;;;;;;8.48;4.68;;;9.50;99.90;;;;;;5096655;28;20048;-76
2023/03/22 04:14:26;;;;;;;11.25;5.47;;;9.50;99.90;;;;;;5096588;28;20047;-76
2023/03/22 04:16:52;;;;;;;9.60;5.20;;;10.20;99.90;;;;;;5096183;28;20040;-75
2023/03/22 04:19:18;;;;;;;10.30;5.20;;;9.50;99.90;;;;;;5096451;28;20113;-76
2023/03/22 04:21:44;;;;;;;12.18;6.00;;;9.50;99.90;;;;;;5096474;28;20480;-76
2023/03/22 04:24:10;;;;;;;14.20;6.70;;;9.50;99.90;;;;;;5096410;28;20048;-76
2023/03/22 04:26:36;;;;;;;12.30;6.00;;;9.60;99.90;;;;;;5096361;28;20081;-76
2023/03/22 04:29:03;;;;;;;16.55;8.13;;;9.60;99.90;;;;;;5096054;28;20047;-76
2023/03/22 04:31:32;;;;;;;14.68;7.32;;;9.60;99.90;;;;;;5096067;28;20044;-76
2023/03/22 04:34:04;;;;;;;12.98;6.95;;;9.60;99.90;;;;;;5095293;28;20127;-76
2023/03/22 04:36:35;;;;;;;15.18;7.60;;;9.60;99.90;;;;;;5096466;28;20051;-76
2023/03/22 04:39:09;;;;;;;13.63;8.48;;;9.80;99.90;;;;;;5095949;28;20044;-77
2023/03/22 04:41:35;;;;;;;14.23;8.32;;;9.70;99.90;;;;;;5096084;28;20051;-76
2023/03/22 04:44:05;;;;;;;16.52;8.15;;;9.80;99.90;;;;;;5095862;28;20067;-77
2023/03/22 04:46:33;;;;;;;13.80;8.10;;;9.70;99.90;;;;;;5096200;28;20048;-77
2023/03/22 04:48:59;;;;;;;15.55;8.55;;;9.70;99.90;;;;;;5095679;28;20066;-76
2023/03/22 04:51:26;;;;;;;15.00;8.30;;;9.70;99.90;;;;;;5096090;28;20048;-76
2023/03/22 04:53:52;;;;;;;;;;;9.70;99.90;;;;;;5096208;28;20044;-76
2023/03/22 04:56:17;;;;;;;12.77;9.10;;;9.70;99.90;;;;;;5095730;28;19942;-77
2023/03/22 04:58:44;;;;;;;13.55;8.30;;;10.40;99.90;;;;;;5095681;28;20097;-76
2023/03/22 05:01:11;;;;;;;15.25;8.48;;;9.70;99.90;;;;;;5096079;28;20048;-77
2023/03/22 05:03:38;;;;;;;14.27;9.18;;;9.70;99.90;;;;;;5095525;28;20082;-77
2023/03/22 05:06:06;;;;;;;15.53;8.90;;;9.70;99.90;;;;;;5095625;28;20044;-77
2023/03/22 05:08:32;;;;;;;15.85;8.98;;;9.70;99.90;;;;;;5095529;28;20085;-77
2023/03/22 05:11:12;;;;;;;17.45;9.07;;;9.70;99.90;;;;;;5095447;28;20036;-76
2023/03/22 05:13:38;;;;;;;13.70;8.68;;;9.70;99.90;;;;;;5095885;28;20487;-76
2023/03/22 05:16:05;;;;;;;15.82;9.45;;;9.90;99.90;;;;;;5095494;28;20052;-76
2023/03/22 05:18:31;;;;;;;;;;;9.70;99.90;;;;;;5095567;28;20047;-77
2023/03/22 05:20:59;;;;;;;12.95;8.70;;;9.70;99.90;;;;;;5095106;28;19920;-76
2023/03/22 05:23:25;;;;;;;15.40;9.73;;;9.70;99.90;;;;;;5095151;28;20044;-76
2023/03/22 05:25:52;;;;;;;16.73;9.05;;;9.70;99.90;;;;;;5095135;28;20501;-76
2023/03/22 05:28:20;;;;;;;18.73;9.73;;;9.70;99.90;;;;;;5095096;28;20044;-76
2023/03/22 05:30:46;;;;;;;16.98;8.55;;;9.70;99.90;;;;;;5095285;28;20044;-76
2023/03/22 05:33:13;;;;;;;15.95;8.65;;;10.20;99.90;;;;;;5094976;28;20090;-76
2023/03/22 05:35:40;;;;;;;14.70;8.35;;;9.70;99.90;;;;;;5094637;28;20555;-76
2023/03/22 05:38:07;;;;;;;15.45;9.32;;;9.70;99.90;;;;;;5094866;28;20115;-77
2023/03/22 05:40:33;;;;;;;15.70;8.30;;;9.80;99.90;;;;;;5093628;28;20495;-76
2023/03/22 05:42:59;;;;;;;12.00;7.75;;;9.80;99.90;;;;;;5095213;28;20079;-77
2023/03/22 05:45:25;;;;;;;17.20;8.88;;;9.80;99.90;;;;;;5094846;28;20124;-77
2023/03/22 05:47:52;;;;;;;14.65;8.55;;;9.70;99.90;;;;;;5093418;28;20153;-76
2023/03/22 05:50:20;;;;;;;15.93;8.25;;;9.80;99.90;;;;;;5094630;28;20088;-77
2023/03/22 05:52:46;;;;;;;16.45;8.88;;;9.80;99.90;;;;;;5094675;28;20036;-76
2023/03/22 05:55:13;;;;;;;12.63;8.30;;;9.80;99.90;;;;;;5093488;28;20112;-77
2023/03/22 05:57:39;;;;;;;11.07;7.18;;;9.80;99.90;;;;;;5093845;28;20502;-77
2023/03/22 06:00:12;;;;;;;13.73;8.00;;;9.80;99.90;;;;;;5094627;28;20160;-76
2023/03/22 06:02:38;;;;;;;12.93;7.53;;;9.80;99.90;;;;;;5094771;28;20285;-76
2023/03/22 06:05:04;;;;;;;12.45;8.00;;;9.80;99.90;;;;;;5094385;28;20379;-77
2023/03/22 06:07:30;;;;;;;16.07;8.10;;;9.80;99.90;;;;;;5094217;28;20040;-77
2023/03/22 06:09:56;;;;;;;12.80;6.85;;;9.80;99.90;;;;;;5094110;28;20062;-75
2023/03/22 06:12:23;;;;;;;14.43;7.80;;;9.80;99.90;;;;;;5094089;28;20051;-80
2023/03/22 06:14:49;;;;;;;15.00;8.60;;;9.90;99.90;;;;;;5092910;28;20530;-79
2023/03/22 06:17:15;;;;;;;12.68;7.50;;;10.10;99.90;;;;;;5094554;28;20048;-78
2023/03/22 06:19:41;;;;;;;14.27;6.85;;;9.80;99.90;;;;;;5094201;28;20483;-77
2023/03/22 06:22:06;;;;;;;10.30;7.10;;;9.80;99.90;;;;;;5094115;28;20051;-78
2023/03/22 06:24:32;;;;;;;12.10;7.03;;;9.80;99.90;;;;;;5093938;28;20036;-78
2023/03/22 06:26:58;;;;;;;11.18;6.88;;;9.80;99.90;;;;;;5094159;28;20047;-78
2023/03/22 06:29:24;;;;;;;12.38;7.22;;;9.80;99.90;;;;;;5093980;28;20040;-78
2023/03/22 06:31:49;;;;;;;12.35;6.55;;;9.80;99.90;;;;;;5094317;28;20043;-78
2023/03/22 06:34:15;;;;;;;13.32;7.20;;;9.80;99.90;;;;;;5093691;28;20044;-77
2023/03/22 06:36:41;;;;;;;11.45;6.38;;;9.80;99.90;;;;;;5093828;28;20087;-78
2023/03/22 06:39:07;;;;;;;8.88;5.97;;;9.80;99.90;;;;;;5093893;28;20054;-77
2023/03/22 06:41:33;;;;;;;14.43;7.45;;;9.80;99.90;;;;;;5093830;28;20377;-77
2023/03/22 06:43:58;;;;;;;11.05;7.03;;;9.80;99.90;;;;;;5093900;28;20055;-79
2023/03/22 06:46:25;;;;;;;12.50;6.97;;;9.90;99.90;;;;;;5093818;28;20043;-78
2023/03/22 06:48:50;;;;;;;10.07;6.68;;;9.90;99.90;;;;;;5093554;28;20086;-79
2023/03/22 06:51:16;;;;;;;11.23;6.15;;;9.90;99.90;;;;;;5093804;28;20052;-79
2023/03/22 06:53:41;;;;;;;10.38;6.18;;;10.00;99.90;;;;;;5092585;28;20153;-78
2023/03/22 06:56:07;;;;;;;11.85;5.50;;;10.00;99.90;;;;;;5093005;28;20523;-78
2023/03/22 06:58:33;;;;;;;10.13;5.70;;;10.10;99.90;;;;;;5093643;28;20036;-78
2023/03/22 07:00:58;;;;;;;11.13;6.13;;;10.20;99.90;;;;;;5093698;28;20040;-77
2023/03/22 07:03:24;;;;;;;13.65;5.65;;;10.20;99.90;;;;;;5093430;28;20044;-81
2023/03/22 07:05:50;;;;;;;12.95;5.93;;;10.30;99.90;;;;;;5093243;28;20562;-77
2023/03/22 07:08:15;;;;;;;9.38;5.35;;;10.30;99.90;;;;;;5093465;28;20086;-78
2023/03/22 07:10:42;;;;;;;8.10;5.07;;;10.40;99.90;;;;;;5093501;28;20076;-81
2023/03/22 07:13:08;;;;;;;14.52;6.05;;;10.50;99.90;;;;;;5093487;28;20056;-77
2023/03/22 07:15:34;;;;;;;9.88;5.13;;;10.60;99.90;;;;;;5093833;28;20090;-79
2023/03/22 07:18:00;;;;;;;12.60;5.57;;;10.80;99.90;;;;;;5093863;28;20094;-77
2023/03/22 07:20:27;;;;;;;8.40;5.28;;;10.70;99.90;;;;;;5093259;28;20468;-78
2023/03/22 07:22:52;;;;;;;9.07;5.10;;;11.40;99.90;;;;;;5092081;28;20376;-76
2023/03/22 07:25:18;;;;;;;13.35;5.30;;;10.90;99.90;;;;;;5092056;28;20051;-77
2023/03/22 07:27:44;;;;;;;8.53;4.40;;;10.90;99.90;;;;;;5091765;28;20036;-73
2023/03/22 07:30:10;;;;;;;9.15;4.63;;;11.00;99.90;;;;;;5092556;28;20544;-76
2023/03/22 07:32:39;;;;;;;10.30;4.27;;;11.00;99.90;;;;;;5091410;28;20051;-78
2023/03/22 07:35:05;;;;;;;8.60;4.50;;;11.00;99.90;;;;;;5092665;28;20293;-77
2023/03/22 07:37:31;;;;;;;8.13;4.70;;;11.00;99.90;;;;;;5091272;28;20086;-77
2023/03/22 07:39:57;;;;;;;9.93;4.43;;;11.00;99.90;;;;;;5093159;28;20080;-77
2023/03/22 07:42:22;;;;;;;10.35;4.03;;;11.00;99.90;;;;;;5093264;28;20050;-78
2023/03/22 07:44:48;;;;;;;7.88;4.00;;;11.00;99.90;;;;;;5093190;28;20047;-78
2023/03/22 07:47:14;;;;;;;8.80;4.20;;;11.00;99.90;;;;;;5093124;28;20040;-78
2023/03/22 07:49:40;;;;;;;10.10;4.23;;;11.00;99.90;;;;;;5093231;28;20048;-77
2023/03/22 07:52:06;;;;;;;8.45;4.32;;;11.00;99.90;;;;;;5092856;28;20046;-78
2023/03/22 07:54:32;;;;;;;13.18;3.80;;;11.00;99.90;;;;;;5093458;28;20063;-76
2023/03/22 07:56:58;;;;;;;10.20;4.43;;;11.20;99.90;;;;;;5093001;28;20044;-77
2023/03/22 07:59:23;;;;;;;7.20;3.55;;;11.20;99.90;;;;;;5092291;28;20071;-77
2023/03/22 08:01:49;;;;;;;8.07;3.45;;;11.40;99.90;;;;;;5093058;28;20340;-77
2023/03/22 08:04:15;;;;;;;9.10;3.70;;;11.40;99.90;;;;;;5091774;28;20088;-77
2023/03/22 08:06:41;;;;;;;7.88;3.80;;;11.50;99.90;;;;;;5092601;28;20501;-77
2023/03/22 08:09:07;;;;;;;10.25;4.05;;;11.90;99.90;;;;;;5094429;28;20032;-78
2023/03/22 08:11:34;;;;;;;5.68;3.25;;;11.70;99.90;;;;;;5096585;28;20392;-77
2023/03/22 08:13:59;;;;;;;8.88;3.40;;;11.70;99.90;;;;;;5096558;28;20143;-76
2023/03/22 08:16:25;;;;;;;7.15;3.58;;;11.50;99.90;;;;;;5096555;28;20051;-77
2023/03/22 08:18:51;;;;;;;10.02;3.22;;;11.40;99.90;;;;;;5096495;28;20050;-77
2023/03/22 08:21:16;;;;;;;7.72;3.40;;;11.50;99.90;;;;;;5096414;28;20066;-77
2023/03/22 08:23:42;;;;;;;4.43;3.20;;;11.40;99.90;;;;;;5096329;28;20040;-77
2023/03/22 08:26:09;;;;;;;8.60;3.80;;;11.40;99.90;;;;;;5096140;28;20121;-78
2023/03/22 08:28:35;;;;;;;11.38;3.67;;;11.40;99.90;;;;;;5096140;28;20048;-77
2023/03/22 08:31:00;;;;;;;8.63;3.50;;;11.40;99.90;;;;;;5095937;28;20093;-77
2023/03/22 08:33:27;;;;;;;7.80;3.08;;;11.40;99.90;;;;;;5096354;28;20101;-78
2023/03/22 08:36:06;;;;;;;5.47;2.80;;;11.40;99.90;;;;;;5096175;28;20044;-77
2023/03/22 08:38:31;;;;;;;10.15;3.60;;;11.40;99.90;;;;;;5096366;28;20048;-77
2023/03/22 08:40:57;;;;;;;8.27;2.90;;;11.50;99.90;;;;;;5096028;28;20040;-77
2023/03/22 08:43:22;;;;;;;11.07;3.08;;;11.50;99.90;;;;;;5095930;28;20047;-77
2023/03/22 08:45:48;;;;;;;8.55;3.17;;;11.50;99.90;;;;;;5095018;28;20040;-75
2023/03/22 08:48:14;;;;;;;9.18;3.00;;;11.50;99.90;;;;;;5095974;28;20044;-78
2023/03/22 08:50:39;;;;;;;6.20;3.10;;;11.50;99.90;;;;;;5095928;28;20109;-77
2023/03/22 08:53:05;;;;;;;8.57;3.00;;;11.50;99.90;;;;;;5095904;28;20044;-77
2023/03/22 08:55:34;;;;;;;8.55;3.10;;;11.40;99.90;;;;;;5095795;28;20394;-76
2023/03/22 08:58:00;;;;;;;8.43;3.40;;;11.50;99.90;;;;;;5095792;28;20148;-78
2023/03/22 09:00:26;;;;;;;10.32;3.03;;;11.50;99.90;;;;;;5095907;28;20086;-77
2023/03/22 09:02:51;;;;;;;9.07;2.97;;;11.50;99.90;;;;;;5095771;28;20044;-77
2023/03/22 09:05:17;;;;;;;9.40;3.10;;;11.50;99.90;;;;;;5095484;28;20044;-77
2023/03/22 09:07:43;;;;;;;10.90;3.40;;;11.60;99.90;;;;;;5095984;28;20093;-78
2023/03/22 09:10:09;;;;;;;9.52;3.22;;;11.50;99.90;;;;;;5095714;28;20044;-77
2023/03/22 09:12:35;;;;;;;4.83;3.40;;;11.50;99.90;;;;;;5095691;28;20065;-76
2023/03/22 09:15:01;;;;;;;9.13;3.07;;;11.50;99.90;;;;;;5095507;28;20385;-79
2023/03/22 09:17:27;;;;;;;7.43;3.40;;;11.60;99.90;;;;;;5095613;28;20367;-76
2023/03/22 09:19:52;;;;;;;8.88;3.10;;;11.80;99.90;;;;;;5095232;28;20040;-76
2023/03/22 09:22:18;;;;;;;6.07;3.28;;;12.00;99.90;;;;;;5095362;28;20047;-76
2023/03/22 09:24:44;;;;;;;14.13;3.72;;;12.10;99.90;;;;;;5095251;28;20357;-77
2023/03/22 09:27:10;;;;;;;12.38;3.53;;;12.20;99.90;;;;;;5095030;28;20048;-76
2023/03/22 09:29:35;;;;;;;9.45;3.28;;;12.20;99.90;;;;;;5095041;28;20127;-78
2023/03/22 09:32:01;;;;;;;7.87;2.83;;;12.20;99.90;;;;;;5095179;28;20036;-78
2023/03/22 09:34:26;;;;;;;7.47;3.03;;;12.20;99.90;;;;;;5094944;28;20043;-77
2023/03/22 09:36:52;;;;;;;9.82;3.25;;;12.20;99.90;;;;;;5095088;28;20036;-77
2023/03/22 09:39:18;;;;;;;7.57;3.30;;;12.20;99.90;;;;;;5093715;28;20047;-77
2023/03/22 09:41:48;;;;;;;8.35;3.28;;;12.30;99.90;;;;;;5094969;28;20564;-76
2023/03/22 09:44:27;;;;;;;9.57;3.28;;;12.30;99.90;;;;;;5094935;28;20097;-77
2023/03/22 09:46:55;;;;;;;9.27;3.17;;;12.30;99.90;;;;;;5093822;28;20473;-77
2023/03/22 09:49:25;;;;;;;8.90;3.42;;;12.30;99.90;;;;;;5094989;28;20052;-78
2023/03/22 09:51:53;;;;;;;8.05;3.08;;;12.30;99.90;;;;;;5095285;28;20071;-77
2023/03/22 09:54:20;;;;;;;7.28;3.22;;;12.30;99.90;;;;;;5094686;28;20036;-77
2023/03/22 09:56:54;;;;;;;7.53;3.10;;;12.30;99.90;;;;;;5094349;28;20048;-78
2023/03/22 09:59:24;;;;;;;7.57;3.40;;;12.30;99.90;;;;;;5094614;28;20212;-78
2023/03/22 10:02:16;;;;;;;7.05;3.67;;;12.20;99.90;;;;;;5094488;28;20090;-77
2023/03/22 10:05:04;;;;;;;7.80;3.40;;;12.20;99.90;;;;;;5070649;28;20399;-78
2023/03/22 10:07:36;;;;;;;10.50;3.15;;;12.20;99.90;;;;;;5094552;28;20040;-78
2023/03/22 10:10:21;;;;;;;6.03;3.22;;;12.10;99.90;;;;;;5093107;28;20036;-77
2023/03/22 10:13:05;;;;;;;9.45;3.47;;;12.00;99.90;;;;;;5094720;28;20410;-78
2023/03/22 10:16:11;;;;;;;9.07;3.70;;;12.00;99.90;;;;;;5094302;28;20061;-77
2023/03/22 10:18:50;;;;;;;7.95;3.58;;;12.00;99.90;;;;;;5059824;28;20066;-78
2023/03/22 10:21:17;;;;;;;12.15;3.88;;;11.90;99.90;;;;;;5094512;28;20036;-78
2023/03/22 10:23:42;;;;;;;;;;;11.80;99.90;;;;;;5094549;28;20051;-77
2023/03/22 10:26:25;;;;;;;8.10;3.47;;;12.00;99.90;;;;;;5094132;28;19920;-78
2023/03/22 10:29:26;;;;;;;7.88;3.35;;;11.70;99.90;;;;;;5094043;28;20074;-77
2023/03/22 10:31:53;;;;;;;7.07;3.55;;;11.70;99.90;;;;;;5093539;28;20050;-79
2023/03/22 10:34:19;;;;;;;;;;;11.60;99.90;;;;;;5094447;28;20040;-78
2023/03/22 10:36:47;;;;;;;6.47;3.38;;;11.60;99.90;;;;;;5094048;28;19920;-77
2023/03/22 10:39:23;;;;;;;8.75;4.10;;;11.60;99.90;;;;;;5093626;28;20062;-78
2023/03/22 10:41:52;;;;;;;8.65;3.83;;;11.50;99.90;;;;;;5094137;28;20058;-78
2023/03/22 10:44:19;;;;;;;13.80;3.42;;;11.60;99.90;;;;;;5093815;28;20083;-78
2023/03/22 10:46:47;;;;;;;8.02;3.47;;;11.50;99.90;;;;;;5094009;28;20097;-77
2023/03/22 10:49:21;;;;;;;9.50;3.45;;;11.50;99.90;;;;;;5093248;28;20059;-80
2023/03/22 10:51:53;;;;;;;7.60;3.42;;;11.50;99.90;;;;;;5093688;28;20036;-81
2023/03/22 10:54:21;;;;;;;10.38;3.45;;;11.50;99.90;;;;;;5092578;28;20491;-79
2023/03/22 10:56:46;;;;;;;12.10;4.00;;;11.40;99.90;;;;;;5093660;28;20047;-78
2023/03/22 10:59:43;;;;;;;7.82;3.72;;;11.40;99.90;;;;;;5092760;28;20093;-81
2023/03/22 11:02:20;;;;;;;11.38;4.13;;;11.40;99.90;;;;;;5092558;28;20048;-78
2023/03/22 11:04:51;;;;;;;9.32;4.05;;;11.50;99.90;;;;;;5094143;28;20043;-82
2023/03/22 11:07:42;;;;;;;8.05;4.00;;;11.80;99.90;;;;;;5092043;28;20052;-80
2023/03/22 11:10:08;;;;;;;9.60;4.90;;;11.30;99.90;;;;;;5093725;28;20044;-76
2023/03/22 11:12:36;;;;;;;8.73;4.13;;;11.30;99.90;;;;;;5093057;28;20063;-76
2023/03/22 11:15:03;;;;;;;12.40;4.60;;;11.30;99.90;;;;;;5093282;28;20048;-77
2023/03/22 11:17:30;;;;;;;7.40;4.30;;;11.20;99.90;;;;;;5093224;28;20373;-78
2023/03/22 11:20:06;;;;;;;10.25;4.18;;;11.20;99.90;;;;;;5093100;28;20036;-77
2023/03/22 11:22:36;;;;;;;14.02;4.50;;;11.10;99.90;;;;;;5093468;28;20051;-78
2023/03/22 11:25:12;;;;;;;10.35;4.50;;;11.20;99.90;;;;;;5093445;28;20368;-79
2023/03/22 11:27:52;;;;;;;11.23;4.15;;;11.10;99.90;;;;;;5093176;28;20047;-79
2023/03/22 11:30:25;;;;;;;7.72;4.00;;;11.10;99.90;;;;;;5091907;28;20048;-78
2023/03/22 11:33:04;;;;;;;7.65;3.70;;;11.20;99.90;;;;;;5093095;28;20101;-77
2023/03/22 11:35:30;;;;;;;8.15;4.43;;;11.20;99.90;;;;;;5093363;28;20158;-77
2023/03/22 11:37:56;;;;;;;9.57;3.75;;;11.30;99.90;;;;;;5093016;28;20158;-76
2023/03/22 11:40:27;;;;;;;12.32;3.47;;;11.20;99.90;;;;;;5092882;28;20434;-77
2023/03/22 11:43:02;;;;;;;6.20;3.00;;;11.10;99.90;;;;;;5101342;28;20051;-78
2023/03/22 11:45:34;;;;;;;4.70;3.17;;;11.10;99.90;;;;;;5096954;28;20048;-82
2023/03/22 11:48:13;;;;;;;8.27;3.45;;;11.60;99.90;;;;;;5095399;28;20056;-78
2023/03/22 11:50:40;;;;;;;9.70;4.18;;;11.10;99.90;;;;;;5097177;28;20135;-78
2023/03/22 11:53:10;;;;;;;9.60;3.45;;;11.00;99.90;;;;;;5096892;28;20047;-78
2023/03/22 11:55:37;;;;;;;9.52;3.70;;;11.10;99.90;;;;;;5097380;28;20040;-77
2023/03/22 11:58:04;;;;;;;7.67;3.60;;;11.10;99.90;;;;;;5096723;28;20055;-79
2023/03/22 12:00:36;;;;;;;7.93;3.70;;;11.10;99.90;;;;;;5096768;28;20294;-77
2023/03/22 12:03:04;;;;;;;8.82;3.78;;;11.10;99.90;;;;;;5096625;28;20373;-80
2023/03/22 12:05:32;;;;;;;7.15;3.80;;;11.20;99.90;;;;;;5096858;28;20090;-77
2023/03/22 12:08:04;;;;;;;7.40;3.35;;;11.10;99.90;;;;;;5097034;28;20165;-78
2023/03/22 12:10:40;;;;;;;13.60;3.72;;;11.20;99.90;;;;;;5096463;28;20584;-77
2023/03/22 12:13:11;;;;;;;7.43;3.10;;;11.00;99.90;;;;;;5096387;28;20044;-76
2023/03/22 12:15:47;;;;;;;9.20;3.50;;;11.10;99.90;;;;;;5095928;28;20472;-77
2023/03/22 12:18:35;;;;;;;6.60;2.95;;;11.00;99.90;;;;;;5096451;28;20044;-76
2023/03/22 12:21:01;;;;;;;;;;;11.10;99.90;;;;;;5096565;28;20184;-77
2023/03/22 12:23:29;;;;;;;7.22;3.13;;;11.00;99.90;;;;;;5096218;28;19955;-77
2023/03/22 12:26:06;;;;;;;6.70;3.33;;;11.00;99.90;;;;;;5094928;28;20039;-76
2023/03/22 12:29:01;;;;;;;9.30;3.72;;;11.10;99.90;;;;;;5096107;28;20482;-76
2023/03/22 12:31:41;;;;;;;13.55;4.05;;;11.10;99.90;;;;;;5096072;28;20036;-76
2023/03/22 12:34:18;;;;;;;7.70;3.50;;;11.10;99.90;;;;;;5096125;28;20079;-77
2023/03/22 12:36:55;;;;;;;6.97;2.97;;;11.10;99.90;;;;;;5096173;28;20036;-77
2023/03/22 12:39:24;;;;;;;;;;;11.10;99.90;;;;;;5096568;28;20626;-76
2023/03/22 12:41:52;;;;;;;9.75;3.85;;;11.10;99.90;;;;;;5095711;28;19927;-77
2023/03/22 12:44:26;;;;;;;4.50;3.22;;;11.10;99.90;;;;;;5095597;28;20063;-76
2023/03/22 12:47:00;;;;;;;10.23;3.30;;;11.00;99.90;;;;;;5094894;28;20373;-75
2023/03/22 12:49:30;;;;;;;5.95;2.90;;;11.00;99.90;;;;;;5095956;28;20056;-76
2023/03/22 12:52:20;;;;;;;12.18;3.13;;;11.00;99.90;;;;;;5095750;28;20044;-77
2023/03/22 12:54:48;;;;;;;8.13;3.05;;;11.10;99.90;;;;;;5087174;28;20059;-78
2023/03/22 12:57:15;;;;;;;9.82;3.75;;;11.00;99.90;;;;;;5095360;28;20047;-79
2023/03/22 12:59:44;;;;;;;8.88;2.60;;;11.20;99.90;;;;;;5094544;28;20411;-78
2023/03/22 13:02:31;;;;;;;6.82;2.60;;;11.00;99.90;;;;;;5095776;28;20056;-79